Time;durP1;ratioP1;P1;durP2;ratioP2;P2;SDS_P1;SDS_P2;PMS_P1;PMS_P2;Temp;Humidity;BMP_temperature;BMP_pressure;BME280_temperature;BME280_humidity;BME280_pressure;Samples;Min_cycle;Max_cycle;Signal;HPM_P1;HPM_P2
2024/04/12 00:00:21;;;;;;;;;83.25;60.00;;;;;;;;10494634;27;43044;-59
2024/04/12 00:05:23;;;;;;;;;78.00;54.25;;;;;;;;10480331;28;49507;-59
2024/04/12 00:10:27;;;;;;;;;76.00;58.75;;;;;;;;10478798;28;49637;-60
2024/04/12 00:15:31;;;;;;;;;77.50;54.00;;;;;;;;10494133;27;48556;-60
2024/04/12 00:20:37;;;;;;;;;71.00;48.00;;;;;;;;10504187;27;49706;-59
2024/04/12 00:25:41;;;;;;;;;67.25;49.00;;;;;;;;10494846;28;48782;-61
2024/04/12 00:30:48;;;;;;;;;74.75;51.00;;;;;;;;10488890;27;49749;-59
2024/04/12 00:35:54;;;;;;;;;68.25;47.50;;;;;;;;10490779;27;48384;-59
2024/04/12 00:41:00;;;;;;;;;70.00;48.25;;;;;;;;10500217;27;49492;-61
2024/04/12 00:46:03;;;;;;;;;69.00;47.75;;;;;;;;10499948;28;48841;-61
2024/04/12 00:51:09;;;;;;;;;66.00;46.00;;;;;;;;10480319;27;42959;-61
2024/04/12 00:56:13;;;;;;;;;67.25;45.75;;;;;;;;10499874;28;43022;-57
2024/04/12 01:01:17;;;;;;;;;66.00;45.25;;;;;;;;10498754;27;43225;-59
2024/04/12 01:06:25;;;;;;;;;66.25;44.00;;;;;;;;10495104;27;42960;-58
2024/04/12 01:11:31;;;;;;;;;65.75;43.75;;;;;;;;10451929;28;43944;-58
2024/04/12 01:16:38;;;;;;;;;63.75;45.00;;;;;;;;10480804;27;43319;-57
2024/04/12 01:21:44;;;;;;;;;65.00;45.00;;;;;;;;10438771;28;44188;-60
2024/04/12 01:26:49;;;;;;;;;64.50;44.75;;;;;;;;10446971;28;44705;-60
2024/04/12 01:31:53;;;;;;;;;63.00;42.25;;;;;;;;10441872;28;43915;-63
2024/04/12 01:37:03;;;;;;;;;63.75;43.00;;;;;;;;10423600;28;44391;-62
2024/04/12 01:42:07;;;;;;;;;61.75;42.00;;;;;;;;10440869;28;43004;-60
2024/04/12 01:47:14;;;;;;;;;62.75;42.00;;;;;;;;10431300;28;43986;-60
2024/04/12 01:52:25;;;;;;;;;60.50;42.50;;;;;;;;10437906;28;43732;-63
2024/04/12 01:57:29;;;;;;;;;62.25;42.25;;;;;;;;10441214;28;43399;-61
2024/04/12 02:02:33;;;;;;;;;57.50;40.00;;;;;;;;10447461;28;44581;-59
2024/04/12 02:07:40;;;;;;;;;61.25;39.75;;;;;;;;10426365;28;44011;-60
2024/04/12 02:12:46;;;;;;;;;72.50;49.50;;;;;;;;10456260;28;44186;-61
2024/04/12 02:18:02;;;;;;;;;75.00;50.50;;;;;;;;10456014;28;42925;-63
2024/04/12 02:23:07;;;;;;;;;74.50;49.25;;;;;;;;10456192;28;43813;-62
2024/04/12 02:28:16;;;;;;;;;71.50;48.00;;;;;;;;10453979;28;43881;-62
2024/04/12 02:33:21;;;;;;;;;66.00;46.50;;;;;;;;10453644;28;44122;-62
2024/04/12 02:38:27;;;;;;;;;65.25;46.50;;;;;;;;10451958;28;43267;-63
2024/04/12 02:43:32;;;;;;;;;68.00;47.25;;;;;;;;10447022;28;42986;-62
2024/04/12 02:48:39;;;;;;;;;62.75;44.25;;;;;;;;10455313;28;43661;-62
2024/04/12 02:53:42;;;;;;;;;66.25;42.25;;;;;;;;10455937;28;43235;-62
2024/04/12 02:58:48;;;;;;;;;61.00;40.25;;;;;;;;10454853;28;43482;-62
2024/04/12 03:03:58;;;;;;;;;59.50;39.00;;;;;;;;10466354;27;42918;-62
2024/04/12 03:09:02;;;;;;;;;59.25;40.50;;;;;;;;10485598;28;42979;-62
2024/04/12 03:14:09;;;;;;;;;61.00;40.75;;;;;;;;10495015;28;43016;-61
2024/04/12 03:19:18;;;;;;;;;61.25;40.00;;;;;;;;10496989;28;43425;-60
2024/04/12 03:24:22;;;;;;;;;67.50;45.50;;;;;;;;10491280;27;43541;-62
2024/04/12 03:29:27;;;;;;;;;72.50;47.50;;;;;;;;10523937;27;43480;-60
2024/04/12 03:34:31;;;;;;;;;69.50;46.75;;;;;;;;10488493;28;43261;-61
2024/04/12 03:39:38;;;;;;;;;71.50;46.00;;;;;;;;10492315;28;43416;-62
2024/04/12 03:44:42;;;;;;;;;66.75;44.25;;;;;;;;10495437;28;43233;-62
2024/04/12 03:49:51;;;;;;;;;69.25;45.75;;;;;;;;10499040;27;42955;-62
2024/04/12 03:55:08;;;;;;;;;68.25;46.00;;;;;;;;10493971;27;43708;-60
2024/04/12 04:00:13;;;;;;;;;69.50;47.50;;;;;;;;10474462;28;44619;-60
2024/04/12 04:05:25;;;;;;;;;62.50;39.75;;;;;;;;10489004;28;44459;-61
2024/04/12 04:10:30;;;;;;;;;65.50;44.25;;;;;;;;10454662;28;45209;-60
2024/04/12 04:15:33;;;;;;;;;68.50;44.25;;;;;;;;10449285;28;43399;-60
2024/04/12 04:20:39;;;;;;;;;64.00;41.75;;;;;;;;10449378;28;43848;-61
2024/04/12 04:25:44;;;;;;;;;61.75;42.00;;;;;;;;10453500;28;43571;-61
2024/04/12 04:30:48;;;;;;;;;61.25;42.25;;;;;;;;10443925;28;43618;-61
2024/04/12 04:35:53;;;;;;;;;57.00;38.00;;;;;;;;10445476;28;43477;-61
2024/04/12 04:40:59;;;;;;;;;55.75;39.50;;;;;;;;10417812;28;43221;-61
2024/04/12 04:46:49;;;;;;;;;57.25;36.25;;;;;;;;10412296;28;43039;-61
2024/04/12 04:51:26;;;;;;;;;53.00;34.75;;;;;;;;10442269;28;45161;-61
2024/04/12 04:56:32;;;;;;;;;57.75;38.50;;;;;;;;10465291;28;43745;-60
2024/04/12 05:01:36;;;;;;;;;54.25;37.25;;;;;;;;10449282;28;43886;-58
2024/04/12 05:06:41;;;;;;;;;55.00;36.25;;;;;;;;10449896;28;44624;-60
2024/04/12 05:11:45;;;;;;;;;53.50;33.50;;;;;;;;10449886;28;43083;-60
2024/04/12 05:16:48;;;;;;;;;59.00;37.50;;;;;;;;10452656;28;43661;-60
2024/04/12 05:21:53;;;;;;;;;56.25;34.75;;;;;;;;10452182;28;43331;-60
2024/04/12 05:27:04;;;;;;;;;66.75;48.50;;;;;;;;10459124;28;43061;-60
2024/04/12 05:32:09;;;;;;;;;74.75;51.00;;;;;;;;10448104;28;43030;-60
2024/04/12 05:37:15;;;;;;;;;69.50;47.25;;;;;;;;10456158;28;44232;-60
2024/04/12 05:42:18;;;;;;;;;67.25;42.75;;;;;;;;10471782;28;43461;-60
2024/04/12 05:47:22;;;;;;;;;60.50;40.75;;;;;;;;10455279;28;43193;-60
2024/04/12 05:52:29;;;;;;;;;58.25;39.25;;;;;;;;10456571;28;43445;-60
2024/04/12 05:57:32;;;;;;;;;60.50;40.75;;;;;;;;10458340;28;42936;-60
2024/04/12 06:02:37;;;;;;;;;67.00;43.50;;;;;;;;10457396;28;42977;-60
2024/04/12 06:07:42;;;;;;;;;59.50;39.00;;;;;;;;10474309;28;43031;-60
2024/04/12 06:12:45;;;;;;;;;61.75;39.75;;;;;;;;10508093;27;43731;-60
2024/04/12 06:17:49;;;;;;;;;60.50;41.00;;;;;;;;10498267;27;43584;-60
2024/04/12 06:22:55;;;;;;;;;59.75;36.50;;;;;;;;10500331;28;42980;-60
2024/04/12 06:28:01;;;;;;;;;80.00;59.00;;;;;;;;10496426;28;43240;-59
2024/04/12 06:33:08;;;;;;;;;87.50;65.25;;;;;;;;10529044;27;43007;-59
2024/04/12 06:38:17;;;;;;;;;80.75;62.00;;;;;;;;10493811;27;43760;-60
2024/04/12 06:43:20;;;;;;;;;79.00;53.75;;;;;;;;10488936;28;43115;-61
2024/04/12 06:48:26;;;;;;;;;69.75;48.75;;;;;;;;10496093;28;43045;-61
2024/04/12 06:53:31;;;;;;;;;75.25;50.25;;;;;;;;10496173;28;43217;-60
2024/04/12 06:58:39;;;;;;;;;70.25;47.00;;;;;;;;10496469;28;43814;-59
2024/04/12 07:03:45;;;;;;;;;71.50;50.00;;;;;;;;10498836;27;43651;-61
2024/04/12 07:08:50;;;;;;;;;64.75;46.25;;;;;;;;10494392;27;43378;-61
2024/04/12 07:13:54;;;;;;;;;65.50;43.75;;;;;;;;10493542;28;44390;-60
2024/04/12 07:19:00;;;;;;;;;67.00;43.00;;;;;;;;10493793;27;43161;-60
2024/04/12 07:24:05;;;;;;;;;65.00;45.50;;;;;;;;10495869;28;43046;-60
2024/04/12 07:29:10;;;;;;;;;66.50;46.00;;;;;;;;10493927;28;43586;-61
2024/04/12 07:34:16;;;;;;;;;59.50;40.25;;;;;;;;10493603;28;43106;-61
2024/04/12 07:39:23;;;;;;;;;64.75;44.50;;;;;;;;10499569;27;43583;-60
2024/04/12 07:44:30;;;;;;;;;60.75;40.25;;;;;;;;10496684;27;43545;-61
2024/04/12 07:49:40;;;;;;;;;72.25;50.50;;;;;;;;10485628;28;43394;-59
2024/04/12 07:54:44;;;;;;;;;65.25;44.75;;;;;;;;10493154;28;43100;-59
2024/04/12 07:59:48;;;;;;;;;70.75;44.00;;;;;;;;10493323;28;43020;-60
2024/04/12 08:04:54;;;;;;;;;66.50;43.00;;;;;;;;10479101;28;45236;-60
2024/04/12 08:10:25;;;;;;;;;65.25;42.50;;;;;;;;10456679;28;43309;-60
2024/04/12 08:15:21;;;;;;;;;60.75;41.25;;;;;;;;10453247;28;48398;-60
2024/04/12 08:20:25;;;;;;;;;62.00;42.00;;;;;;;;10453040;28;48582;-61
2024/04/12 08:25:32;;;;;;;;;60.50;42.75;;;;;;;;10447296;28;48837;-60
2024/04/12 08:30:51;;;;;;;;;97.75;66.00;;;;;;;;10414018;28;48578;-60
2024/04/12 08:35:56;;;;;;;;;95.50;71.75;;;;;;;;10421513;28;49863;-60
2024/04/12 08:41:02;;;;;;;;;104.25;74.75;;;;;;;;10435358;28;48775;-60
2024/04/12 08:46:14;;;;;;;;;98.00;73.75;;;;;;;;10412849;28;43378;-60
2024/04/12 08:51:21;;;;;;;;;98.25;76.25;;;;;;;;10433318;28;43075;-60
2024/04/12 08:56:28;;;;;;;;;93.50;68.00;;;;;;;;10437126;28;42937;-60
2024/04/12 09:01:34;;;;;;;;;81.25;59.75;;;;;;;;10415207;28;43925;-61
2024/04/12 09:06:38;;;;;;;;;82.25;62.00;;;;;;;;10433380;28;43752;-61
2024/04/12 09:11:45;;;;;;;;;78.75;58.50;;;;;;;;10443871;28;42958;-61
2024/04/12 09:16:53;;;;;;;;;76.50;55.50;;;;;;;;10447701;28;43315;-61
2024/04/12 09:22:09;;;;;;;;;73.50;51.50;;;;;;;;10457258;28;43934;-61
2024/04/12 09:27:18;;;;;;;;;75.75;50.50;;;;;;;;10455242;28;43381;-61
2024/04/12 09:37:54;;;;;;;;;73.25;49.00;;;;;;;;10440655;28;44460;-61
2024/04/12 10:42:05;;;;;;;;;71.25;47.25;;;;;;;;10489883;27;44412;-60
2024/04/12 10:47:12;;;;;;;;;69.25;46.25;;;;;;;;10494971;28;43781;-58
2024/04/12 10:52:16;;;;;;;;;70.00;45.50;;;;;;;;10496640;28;44002;-60
2024/04/12 10:57:19;;;;;;;;;68.25;46.75;;;;;;;;10493470;28;42995;-59
2024/04/12 11:02:23;;;;;;;;;64.50;45.00;;;;;;;;10495269;27;43033;-61
2024/04/12 11:07:28;;;;;;;;;64.25;43.25;;;;;;;;10484466;28;43105;-60
2024/04/12 11:12:45;;;;;;;;;62.00;41.25;;;;;;;;10444183;28;42927;-59
2024/04/12 11:34:06;;;;;;;;;57.50;39.50;;;;;;;;10446618;28;43087;-60
2024/04/12 11:39:23;;;;;;;;;60.75;38.00;;;;;;;;10456458;28;43340;-60
2024/04/12 11:44:27;;;;;;;;;60.25;39.75;;;;;;;;10454777;28;43234;-60
2024/04/12 11:49:45;;;;;;;;;58.75;38.25;;;;;;;;10453550;28;43624;-60
2024/04/12 11:54:53;;;;;;;;;57.75;37.75;;;;;;;;10437213;28;44317;-60
2024/04/12 11:59:59;;;;;;;;;56.00;33.25;;;;;;;;10463610;28;43180;-60
2024/04/12 12:05:20;;;;;;;;;50.75;31.25;;;;;;;;10497342;28;43515;-60
2024/04/12 12:10:25;;;;;;;;;52.75;33.50;;;;;;;;10496074;28;49396;-61
2024/04/12 12:15:29;;;;;;;;;50.00;30.50;;;;;;;;10496303;28;48547;-60
2024/04/12 12:20:32;;;;;;;;;45.00;31.25;;;;;;;;10479488;28;43747;-61
2024/04/12 12:25:38;;;;;;;;;48.25;31.00;;;;;;;;10468133;28;43689;-59
2024/04/12 12:30:44;;;;;;;;;44.50;27.75;;;;;;;;10453200;28;43290;-60
2024/04/12 12:35:50;;;;;;;;;46.25;31.25;;;;;;;;10452841;28;43648;-60
2024/04/12 12:40:55;;;;;;;;;47.50;31.00;;;;;;;;10461244;28;42904;-60
2024/04/12 12:46:00;;;;;;;;;48.25;32.00;;;;;;;;10451164;28;43780;-60
2024/04/12 12:51:04;;;;;;;;;43.75;25.75;;;;;;;;10460533;28;44081;-61
2024/04/12 12:56:08;;;;;;;;;45.00;25.50;;;;;;;;10460180;28;43674;-61
2024/04/12 13:01:14;;;;;;;;;44.75;27.75;;;;;;;;10450414;28;43779;-62
2024/04/12 13:06:23;;;;;;;;;42.00;24.25;;;;;;;;10459632;28;43525;-59
2024/04/12 13:11:26;;;;;;;;;43.25;25.00;;;;;;;;10443195;28;42966;-63
2024/04/12 13:16:36;;;;;;;;;43.00;24.75;;;;;;;;10456258;28;43267;-61
2024/04/12 13:21:46;;;;;;;;;42.50;24.00;;;;;;;;10459423;28;44445;-60
2024/04/12 13:26:50;;;;;;;;;36.50;22.50;;;;;;;;10454557;28;43998;-60
2024/04/12 13:31:53;;;;;;;;;44.25;22.00;;;;;;;;10450611;28;44059;-60
2024/04/12 13:36:58;;;;;;;;;43.00;27.00;;;;;;;;10457943;28;44404;-60
2024/04/12 13:42:10;;;;;;;;;39.25;24.75;;;;;;;;10424503;28;43116;-60
2024/04/12 13:52:37;;;;;;;;;42.25;24.00;;;;;;;;10430182;28;43240;-61
2024/04/12 13:57:43;;;;;;;;;46.25;27.75;;;;;;;;10435505;28;43757;-61
2024/04/12 14:02:47;;;;;;;;;45.00;24.75;;;;;;;;10416747;28;43838;-58
2024/04/12 14:07:52;;;;;;;;;38.50;26.25;;;;;;;;10440330;28;43306;-61
2024/04/12 14:12:56;;;;;;;;;41.25;24.50;;;;;;;;10493812;27;43130;-61
2024/04/12 14:18:01;;;;;;;;;34.25;21.25;;;;;;;;10501104;27;43982;-60
2024/04/12 14:23:06;;;;;;;;;40.00;21.75;;;;;;;;10490821;27;42975;-58
2024/04/12 14:28:10;;;;;;;;;32.75;18.75;;;;;;;;10493457;28;43451;-59
2024/04/12 14:33:15;;;;;;;;;43.75;23.25;;;;;;;;10499256;28;43047;-59
2024/04/12 14:38:19;;;;;;;;;45.75;22.75;;;;;;;;10498379;28;43321;-59
2024/04/12 14:43:24;;;;;;;;;38.50;22.75;;;;;;;;10498885;28;43699;-59
2024/04/12 14:48:28;;;;;;;;;43.25;20.25;;;;;;;;10515279;28;43041;-59
2024/04/12 14:53:33;;;;;;;;;44.75;26.50;;;;;;;;10507021;27;49754;-59
2024/04/12 14:58:36;;;;;;;;;42.00;23.75;;;;;;;;10496869;27;43620;-58
2024/04/12 15:52:10;;;;;;;;;37.00;21.25;;;;;;;;10497177;28;43946;-59
2024/04/12 16:13:22;;;;;;;;;39.25;21.25;;;;;;;;10497160;28;42964;-59
2024/04/12 16:18:25;;;;;;;;;37.50;20.25;;;;;;;;10495694;28;43673;-59
2024/04/12 16:23:30;;;;;;;;;40.00;20.25;;;;;;;;10495588;28;42956;-59
2024/04/12 16:28:35;;;;;;;;;34.00;17.50;;;;;;;;10496071;28;43765;-59
2024/04/12 16:33:39;;;;;;;;;33.75;18.25;;;;;;;;10519808;27;44484;-59
2024/04/12 16:38:43;;;;;;;;;31.00;17.75;;;;;;;;10495206;28;42999;-59
2024/04/12 16:43:47;;;;;;;;;36.25;22.25;;;;;;;;10494554;28;43094;-59
2024/04/12 16:48:51;;;;;;;;;35.25;17.75;;;;;;;;10494417;28;42984;-58
2024/04/12 16:53:54;;;;;;;;;33.75;18.50;;;;;;;;10496128;28;43311;-59
2024/04/12 16:58:59;;;;;;;;;39.50;16.50;;;;;;;;10495423;28;43374;-59
2024/04/12 17:04:03;;;;;;;;;37.25;19.50;;;;;;;;10494059;28;44053;-59
2024/04/12 17:09:09;;;;;;;;;32.50;17.00;;;;;;;;10494430;28;42934;-59
2024/04/12 17:14:14;;;;;;;;;30.00;15.00;;;;;;;;10494362;28;44266;-59
2024/04/12 17:19:18;;;;;;;;;32.00;16.50;;;;;;;;10497398;27;43169;-59
2024/04/12 17:24:22;;;;;;;;;35.00;16.50;;;;;;;;10501106;28;43535;-59
2024/04/12 17:29:26;;;;;;;;;35.50;20.50;;;;;;;;10501047;28;43657;-59
2024/04/12 17:34:30;;;;;;;;;32.25;18.50;;;;;;;;10503463;28;43116;-59
2024/04/12 17:39:33;;;;;;;;;37.75;17.25;;;;;;;;10501281;28;42987;-59
2024/04/12 17:44:40;;;;;;;;;35.00;17.50;;;;;;;;10500882;28;43271;-59
2024/04/12 17:49:44;;;;;;;;;30.75;17.75;;;;;;;;10500766;28;43057;-59
2024/04/12 17:54:47;;;;;;;;;30.75;17.50;;;;;;;;10483557;28;45566;-59
2024/04/12 17:59:53;;;;;;;;;30.25;15.00;;;;;;;;10500726;28;42932;-59
2024/04/12 18:04:56;;;;;;;;;37.25;19.00;;;;;;;;10500492;28;43027;-59
2024/04/12 18:10:00;;;;;;;;;33.00;17.50;;;;;;;;10446080;28;44025;-59
2024/04/12 18:15:07;;;;;;;;;32.75;17.25;;;;;;;;10400543;28;42901;-59
2024/04/12 18:20:10;;;;;;;;;33.25;19.00;;;;;;;;10416183;28;42917;-59
2024/04/12 18:25:14;;;;;;;;;36.75;18.00;;;;;;;;10423393;28;43074;-59
2024/04/12 18:30:17;;;;;;;;;27.75;13.75;;;;;;;;10449112;28;43763;-59
2024/04/12 18:35:21;;;;;;;;;38.50;19.25;;;;;;;;10457377;28;43484;-59
2024/04/12 18:45:47;;;;;;;;;30.00;16.75;;;;;;;;10456507;28;48627;-59
2024/04/12 18:50:51;;;;;;;;;26.25;13.00;;;;;;;;10456237;28;44049;-59
2024/04/12 18:55:56;;;;;;;;;34.00;20.00;;;;;;;;10456132;28;48504;-59
2024/04/12 19:01:00;;;;;;;;;30.00;17.00;;;;;;;;10434310;28;48715;-59
2024/04/12 19:06:04;;;;;;;;;31.00;15.25;;;;;;;;10414180;28;48417;-59
2024/04/12 19:11:12;;;;;;;;;33.50;16.50;;;;;;;;10453768;27;43301;-59
2024/04/12 19:16:17;;;;;;;;;29.00;15.25;;;;;;;;10496637;27;43103;-59
2024/04/12 19:21:22;;;;;;;;;27.50;14.25;;;;;;;;10496903;27;43034;-60
2024/04/12 19:26:27;;;;;;;;;34.75;16.75;;;;;;;;10470486;27;43321;-60
2024/04/12 19:31:32;;;;;;;;;33.00;18.75;;;;;;;;10497910;27;43030;-59
2024/04/12 19:36:42;;;;;;;;;27.00;13.00;;;;;;;;10496179;27;42969;-59
2024/04/12 19:41:47;;;;;;;;;28.50;15.25;;;;;;;;10495654;27;42969;-59
2024/04/12 19:46:51;;;;;;;;;30.50;15.75;;;;;;;;10496764;27;42931;-59
2024/04/12 19:51:55;;;;;;;;;32.00;16.50;;;;;;;;10497230;27;43282;-59
2024/04/12 19:56:59;;;;;;;;;31.75;15.00;;;;;;;;10496973;27;42963;-59
2024/04/12 20:02:03;;;;;;;;;28.50;14.75;;;;;;;;10496300;27;43052;-59
2024/04/12 20:07:06;;;;;;;;;28.50;14.25;;;;;;;;10495471;27;43228;-60
2024/04/12 20:12:10;;;;;;;;;34.50;15.75;;;;;;;;10473047;27;43809;-59
2024/04/12 20:17:20;;;;;;;;;32.25;16.00;;;;;;;;10495645;27;44162;-59
2024/04/12 20:22:24;;;;;;;;;30.25;13.00;;;;;;;;10495055;27;43002;-59
2024/04/12 20:27:31;;;;;;;;;32.75;16.75;;;;;;;;10492917;28;43149;-59
2024/04/12 20:32:38;;;;;;;;;32.75;16.50;;;;;;;;10495770;28;43043;-59
2024/04/12 20:37:42;;;;;;;;;32.00;16.50;;;;;;;;10494788;28;43232;-59
2024/04/12 20:42:48;;;;;;;;;32.75;19.00;;;;;;;;10503473;27;43815;-59
2024/04/12 20:47:51;;;;;;;;;29.00;14.00;;;;;;;;10495752;27;43762;-59
2024/04/12 20:52:55;;;;;;;;;37.75;21.50;;;;;;;;10495589;27;43741;-59
2024/04/12 20:58:00;;;;;;;;;34.75;18.25;;;;;;;;10502627;27;42959;-59
2024/04/12 21:03:04;;;;;;;;;29.25;15.75;;;;;;;;10502543;27;43103;-59
2024/04/12 21:08:08;;;;;;;;;33.25;18.00;;;;;;;;10501418;27;43107;-59
2024/04/12 21:13:12;;;;;;;;;37.75;21.25;;;;;;;;10499008;27;43063;-61
2024/04/12 21:18:15;;;;;;;;;36.75;20.50;;;;;;;;10496194;28;43539;-61
2024/04/12 21:23:19;;;;;;;;;34.25;21.25;;;;;;;;10499208;28;43666;-61
2024/04/12 21:28:23;;;;;;;;;39.00;24.50;;;;;;;;10497686;27;43789;-61
2024/04/12 21:33:27;;;;;;;;;42.50;26.50;;;;;;;;10497010;27;43035;-60
2024/04/12 21:38:38;;;;;;;;;41.75;21.50;;;;;;;;10500257;27;43082;-59
2024/04/12 21:43:46;;;;;;;;;39.00;24.50;;;;;;;;10503494;27;43736;-60
2024/04/12 21:48:49;;;;;;;;;45.00;29.50;;;;;;;;10497779;27;43588;-61
2024/04/12 21:53:52;;;;;;;;;42.75;26.75;;;;;;;;10497817;27;43577;-61
2024/04/12 21:58:56;;;;;;;;;49.50;30.25;;;;;;;;10492645;27;43762;-60
2024/04/12 22:04:01;;;;;;;;;47.00;29.25;;;;;;;;10494923;28;43514;-60
2024/04/12 22:09:07;;;;;;;;;49.75;29.75;;;;;;;;10470356;28;43187;-60
2024/04/12 22:14:11;;;;;;;;;46.00;29.50;;;;;;;;10447491;28;44081;-60
2024/04/12 22:19:15;;;;;;;;;45.25;30.50;;;;;;;;10453733;28;43048;-60
2024/04/12 22:24:19;;;;;;;;;45.25;29.75;;;;;;;;10455283;28;42920;-61
2024/04/12 22:29:24;;;;;;;;;51.50;29.75;;;;;;;;10456092;28;43577;-60
2024/04/12 22:34:27;;;;;;;;;47.25;28.75;;;;;;;;10452529;28;43561;-60
2024/04/12 22:39:31;;;;;;;;;49.50;30.00;;;;;;;;10466718;28;42969;-60
2024/04/12 22:44:36;;;;;;;;;50.50;30.75;;;;;;;;10453799;28;43699;-60
2024/04/12 22:49:39;;;;;;;;;44.25;28.50;;;;;;;;10453430;28;45325;-61
2024/04/12 22:54:43;;;;;;;;;47.50;25.50;;;;;;;;10451919;28;44178;-61
2024/04/12 22:59:47;;;;;;;;;45.00;29.50;;;;;;;;10454086;28;44528;-61
2024/04/12 23:04:52;;;;;;;;;44.00;29.25;;;;;;;;10453590;28;44066;-60
2024/04/12 23:09:57;;;;;;;;;45.75;26.75;;;;;;;;10456964;28;43254;-59
2024/04/12 23:15:02;;;;;;;;;49.75;30.25;;;;;;;;10455560;28;43719;-60
2024/04/12 23:20:07;;;;;;;;;52.75;35.00;;;;;;;;10461322;28;43296;-61
2024/04/12 23:25:11;;;;;;;;;49.25;32.25;;;;;;;;10449864;28;43016;-61
2024/04/12 23:30:15;;;;;;;;;49.00;33.75;;;;;;;;10451910;28;44010;-60
2024/04/12 23:35:19;;;;;;;;;51.25;33.50;;;;;;;;10450816;28;43026;-60
2024/04/12 23:40:23;;;;;;;;;50.00;32.50;;;;;;;;10452595;28;43633;-60
2024/04/12 23:45:27;;;;;;;;;51.25;32.00;;;;;;;;10445809;28;43307;-61
2024/04/12 23:50:30;;;;;;;;;44.50;29.00;;;;;;;;10452624;28;43191;-60
2024/04/12 23:55:34;;;;;;;;;44.25;25.75;;;;;;;;10469149;28;42971;-60
